Time;durP1;ratioP1;P1;durP2;ratioP2;P2;SDS_P1;SDS_P2;PMS_P1;PMS_P2;Temp;Humidity;BMP_temperature;BMP_pressure;BME280_temperature;BME280_humidity;BME280_pressure;Samples;Min_cycle;Max_cycle;Signal;HPM_P1;HPM_P2
2021/05/09 00:01:44;;;;;;;7.03;6.43;;;18.10;99.90;;;;;;5072264;28;20029;-48
2021/05/09 00:04:11;;;;;;;7.40;6.72;;;18.10;99.90;;;;;;5072115;28;20074;-53
2021/05/09 00:06:39;;;;;;;6.20;5.70;;;18.00;99.90;;;;;;5072219;28;20051;-51
2021/05/09 00:09:06;;;;;;;5.95;5.55;;;18.00;99.90;;;;;;5072057;28;20070;-49
2021/05/09 00:11:34;;;;;;;5.82;5.28;;;18.00;99.90;;;;;;5072136;28;20017;-47
2021/05/09 00:14:01;;;;;;;6.97;6.47;;;18.10;99.90;;;;;;5072219;28;20023;-48
2021/05/09 00:16:29;;;;;;;5.70;5.30;;;18.20;99.90;;;;;;5072128;28;20043;-50
2021/05/09 00:18:56;;;;;;;6.20;5.70;;;18.30;99.90;;;;;;5072002;28;20025;-49
2021/05/09 00:21:24;;;;;;;6.53;5.95;;;18.30;99.90;;;;;;5071904;28;20028;-52
2021/05/09 00:23:51;;;;;;;6.03;5.53;;;18.20;99.90;;;;;;5072083;28;20032;-48
2021/05/09 00:26:19;;;;;;;6.85;6.15;;;18.20;99.90;;;;;;5071900;28;20020;-54
2021/05/09 00:28:46;;;;;;;7.40;6.63;;;18.30;99.90;;;;;;5071821;28;20052;-53
2021/05/09 00:31:13;;;;;;;6.60;6.00;;;18.30;99.90;;;;;;5071961;28;20036;-49
2021/05/09 00:33:41;;;;;;;6.05;5.60;;;18.30;99.90;;;;;;5071924;28;20412;-49
2021/05/09 00:36:08;;;;;;;7.53;6.88;;;18.30;99.90;;;;;;5071752;28;20016;-49
2021/05/09 00:38:35;;;;;;;7.15;6.50;;;18.30;99.90;;;;;;5071727;28;20507;-49
2021/05/09 00:41:03;;;;;;;7.00;6.50;;;18.30;99.90;;;;;;5071713;28;20119;-47
2021/05/09 00:43:30;;;;;;;6.57;6.07;;;18.40;99.90;;;;;;5071656;28;20090;-48
2021/05/09 00:45:57;;;;;;;6.18;5.55;;;18.50;99.90;;;;;;5071813;28;20016;-51
2021/05/09 00:48:25;;;;;;;6.50;5.63;;;18.60;99.90;;;;;;5071736;28;20164;-51
2021/05/09 00:50:52;;;;;;;8.00;6.93;;;18.60;99.90;;;;;;5071734;28;20395;-51
2021/05/09 00:53:23;;;;;;;6.93;6.32;;;18.60;99.90;;;;;;5070448;28;20032;-49
2021/05/09 00:55:52;;;;;;;6.68;6.07;;;18.60;99.90;;;;;;5071769;28;20033;-49
2021/05/09 00:58:22;;;;;;;6.85;6.35;;;18.70;99.90;;;;;;5071605;28;20468;-47
2021/05/09 01:00:51;;;;;;;7.25;6.63;;;18.70;99.90;;;;;;5072155;28;20027;-49
2021/05/09 01:03:21;;;;;;;10.88;8.18;;;18.70;99.90;;;;;;5073584;28;20028;-53
2021/05/09 01:05:49;;;;;;;6.95;6.50;;;18.70;99.90;;;;;;5075073;28;20028;-48
2021/05/09 01:08:17;;;;;;;7.82;7.22;;;18.70;99.90;;;;;;5075056;28;20048;-52
2021/05/09 01:10:44;;;;;;;7.32;6.80;;;18.70;99.90;;;;;;5073863;28;20028;-47
2021/05/09 01:13:11;;;;;;;7.60;7.00;;;18.60;99.90;;;;;;5075080;28;20469;-50
2021/05/09 01:15:39;;;;;;;7.13;6.53;;;18.60;99.90;;;;;;5074963;28;20027;-53
2021/05/09 01:18:06;;;;;;;7.40;6.97;;;18.60;99.90;;;;;;5075004;28;20028;-53
2021/05/09 01:20:36;;;;;;;7.63;6.93;;;18.60;99.90;;;;;;5075139;28;20021;-47
2021/05/09 01:23:04;;;;;;;8.38;6.63;;;18.70;99.90;;;;;;5074760;28;20067;-48
2021/05/09 01:25:32;;;;;;;6.80;6.30;;;18.70;99.90;;;;;;5073425;28;20167;-50
2021/05/09 01:28:05;;;;;;;6.60;6.10;;;18.70;99.90;;;;;;5074964;28;20492;-54
2021/05/09 01:30:32;;;;;;;6.55;6.00;;;18.80;99.90;;;;;;5074987;28;20365;-53
2021/05/09 01:33:00;;;;;;;7.05;6.45;;;18.90;99.90;;;;;;5074919;28;20024;-47
2021/05/09 01:35:27;;;;;;;6.40;6.00;;;18.90;99.90;;;;;;5074768;28;20039;-52
2021/05/09 01:37:54;;;;;;;7.15;6.60;;;19.00;99.90;;;;;;5074745;28;20029;-51
2021/05/09 01:40:22;;;;;;;8.35;7.60;;;19.10;99.90;;;;;;5074630;28;20053;-53
2021/05/09 01:42:49;;;;;;;6.78;6.28;;;19.20;99.90;;;;;;5074615;28;20029;-51
2021/05/09 01:45:19;;;;;;;6.47;5.88;;;19.30;99.90;;;;;;5074660;28;20025;-50
2021/05/09 01:47:47;;;;;;;6.70;6.13;;;19.40;99.90;;;;;;5074750;28;20053;-48
2021/05/09 01:50:20;;;;;;;6.47;5.80;;;19.30;99.90;;;;;;5074656;28;20423;-51
2021/05/09 01:52:47;;;;;;;7.88;7.18;;;19.40;99.90;;;;;;5074678;28;20468;-52
2021/05/09 01:55:19;;;;;;;7.28;6.57;;;19.30;99.90;;;;;;5073134;28;20158;-51
2021/05/09 01:57:47;;;;;;;7.97;7.38;;;19.40;99.90;;;;;;5074123;28;20107;-50
2021/05/09 02:00:17;;;;;;;7.47;6.90;;;19.50;99.90;;;;;;5072797;28;20025;-51
2021/05/09 02:02:44;;;;;;;7.85;7.20;;;19.70;99.90;;;;;;5074180;28;20024;-50
2021/05/09 02:05:12;;;;;;;7.47;6.68;;;19.60;99.90;;;;;;5072991;28;20024;-51
2021/05/09 02:07:40;;;;;;;7.50;6.90;;;19.60;99.90;;;;;;5074092;28;20100;-51
2021/05/09 02:10:08;;;;;;;8.40;7.80;;;19.50;99.90;;;;;;5074138;28;20476;-51
2021/05/09 02:12:37;;;;;;;8.15;7.40;;;19.40;99.90;;;;;;5073701;28;20060;-50
2021/05/09 02:15:06;;;;;;;8.45;7.75;;;19.40;99.90;;;;;;5074024;28;20028;-48
2021/05/09 02:17:33;;;;;;;8.43;7.65;;;19.40;99.90;;;;;;5074058;28;20021;-48
2021/05/09 02:20:01;;;;;;;8.70;7.90;;;19.40;99.90;;;;;;5074032;28;20505;-49
2021/05/09 02:22:29;;;;;;;8.50;7.70;;;19.40;99.90;;;;;;5073874;28;20027;-49
2021/05/09 02:24:56;;;;;;;7.80;7.20;;;19.40;99.90;;;;;;5073829;28;20017;-50
2021/05/09 02:27:23;;;;;;;7.68;7.07;;;19.40;99.90;;;;;;5073804;28;20120;-49
2021/05/09 02:29:51;;;;;;;7.82;7.13;;;19.50;99.90;;;;;;5073712;28;20023;-49
2021/05/09 02:32:18;;;;;;;8.18;7.57;;;19.50;99.90;;;;;;5073450;28;20021;-53
2021/05/09 02:34:45;;;;;;;7.40;7.00;;;19.50;99.90;;;;;;5073523;28;20032;-50
2021/05/09 02:37:13;;;;;;;8.50;7.90;;;19.80;99.90;;;;;;5073508;28;20046;-49
2021/05/09 02:39:40;;;;;;;7.45;6.93;;;19.90;99.90;;;;;;5073600;28;20505;-47
2021/05/09 02:42:07;;;;;;;8.38;7.50;;;19.90;99.90;;;;;;5073293;28;20047;-50
2021/05/09 02:44:35;;;;;;;6.95;6.55;;;19.90;99.90;;;;;;5073114;28;20017;-53
2021/05/09 02:47:02;;;;;;;7.28;6.78;;;19.80;99.90;;;;;;5073300;28;20025;-54
2021/05/09 02:49:30;;;;;;;7.28;6.70;;;19.70;99.90;;;;;;5073326;28;20023;-48
2021/05/09 02:51:59;;;;;;;6.85;6.35;;;19.70;99.90;;;;;;5073279;28;20131;-51
2021/05/09 02:54:27;;;;;;;6.82;6.20;;;19.70;99.90;;;;;;5073215;28;20055;-50
2021/05/09 02:56:54;;;;;;;7.90;7.30;;;19.60;99.90;;;;;;5073164;28;20362;-52
2021/05/09 02:59:21;;;;;;;8.40;7.80;;;19.50;99.90;;;;;;5073166;28;20464;-50
2021/05/09 03:01:49;;;;;;;8.02;7.18;;;19.50;99.90;;;;;;5071794;28;20111;-50
2021/05/09 03:04:16;;;;;;;8.10;7.25;;;19.50;99.90;;;;;;5072862;28;20082;-51
2021/05/09 03:06:43;;;;;;;7.45;6.93;;;19.60;99.90;;;;;;5073092;28;20512;-50
2021/05/09 03:09:11;;;;;;;7.60;7.00;;;19.70;99.90;;;;;;5072978;28;20433;-53
2021/05/09 03:11:38;;;;;;;7.18;6.50;;;19.70;99.90;;;;;;5071737;28;20036;-52
2021/05/09 03:14:05;;;;;;;7.85;7.25;;;19.70;99.90;;;;;;5072981;28;20105;-51
2021/05/09 03:16:33;;;;;;;8.20;7.43;;;19.70;99.90;;;;;;5072784;28;20047;-52
2021/05/09 03:19:00;;;;;;;7.93;7.13;;;19.80;99.90;;;;;;5072904;28;20027;-52
2021/05/09 03:21:27;;;;;;;7.85;6.97;;;19.80;99.90;;;;;;5072693;28;20404;-53
2021/05/09 03:23:55;;;;;;;7.57;6.95;;;19.80;99.90;;;;;;5072164;28;20032;-49
2021/05/09 03:26:22;;;;;;;8.60;7.63;;;19.80;99.90;;;;;;5072621;28;20100;-47
2021/05/09 03:28:49;;;;;;;8.00;7.35;;;19.80;99.90;;;;;;5072665;28;20108;-53
2021/05/09 03:31:17;;;;;;;8.02;7.25;;;19.80;99.90;;;;;;5072596;28;20362;-52
2021/05/09 03:33:44;;;;;;;8.10;7.47;;;19.80;99.90;;;;;;5072587;28;20025;-52
2021/05/09 03:36:12;;;;;;;9.07;8.35;;;19.90;99.90;;;;;;5072442;28;20059;-48
2021/05/09 03:38:40;;;;;;;8.50;7.90;;;19.90;99.90;;;;;;5072620;28;20024;-50
2021/05/09 03:41:07;;;;;;;7.85;7.25;;;19.90;99.90;;;;;;5072367;28;20045;-53
2021/05/09 03:43:37;;;;;;;7.65;7.05;;;19.90;99.90;;;;;;5072397;28;20040;-51
2021/05/09 03:46:04;;;;;;;8.40;7.72;;;20.00;99.90;;;;;;5071152;28;20480;-47
2021/05/09 03:48:31;;;;;;;8.02;7.40;;;20.00;99.90;;;;;;5072342;28;20013;-53
2021/05/09 03:50:59;;;;;;;8.93;8.18;;;20.00;99.90;;;;;;5070962;28;20400;-52
2021/05/09 03:53:28;;;;;;;8.75;8.05;;;20.00;99.90;;;;;;5072410;28;20115;-52
2021/05/09 03:55:55;;;;;;;8.00;7.40;;;20.00;99.90;;;;;;5072362;28;20028;-53
2021/05/09 03:58:23;;;;;;;8.45;7.53;;;20.10;99.90;;;;;;5072366;28;20457;-53
2021/05/09 04:00:50;;;;;;;7.32;6.68;;;20.00;99.90;;;;;;5072351;28;20028;-53
2021/05/09 04:03:29;;;;;;;10.38;6.82;;;20.10;99.90;;;;;;5072111;28;20396;-53
2021/05/09 04:05:57;;;;;;;8.32;7.35;;;20.10;99.90;;;;;;5072320;28;20492;-48
2021/05/09 04:08:26;;;;;;;7.93;6.28;;;20.10;99.90;;;;;;5072262;28;20402;-50
2021/05/09 04:10:57;;;;;;;7.20;6.57;;;20.10;99.90;;;;;;5072206;28;20021;-51
2021/05/09 04:13:25;;;;;;;8.48;6.88;;;20.20;99.90;;;;;;5070941;28;20694;-52
2021/05/09 04:15:53;;;;;;;8.32;7.60;;;20.10;99.90;;;;;;5072135;28;20540;-49
2021/05/09 04:18:20;;;;;;;8.80;7.15;;;20.10;99.90;;;;;;5072089;28;20021;-48
2021/05/09 04:20:50;;;;;;;7.95;7.25;;;20.20;99.90;;;;;;5072122;28;20024;-49
2021/05/09 04:23:19;;;;;;;8.02;7.30;;;20.20;99.90;;;;;;5071985;28;20488;-51
2021/05/09 04:25:51;;;;;;;8.15;7.38;;;20.10;99.90;;;;;;5070823;28;20029;-48
2021/05/09 04:28:22;;;;;;;8.95;6.70;;;20.00;99.90;;;;;;5072128;28;20016;-48
2021/05/09 04:30:51;;;;;;;6.90;6.22;;;19.90;99.90;;;;;;5072127;28;20495;-49
2021/05/09 04:33:24;;;;;;;7.22;6.60;;;20.00;99.90;;;;;;5072323;28;20090;-51
2021/05/09 04:35:52;;;;;;;7.90;7.40;;;20.00;99.90;;;;;;5072950;28;20393;-49
2021/05/09 04:38:19;;;;;;;9.02;8.15;;;20.10;99.90;;;;;;5075880;28;20032;-46
2021/05/09 04:40:47;;;;;;;9.43;7.50;;;20.00;99.90;;;;;;5075671;28;20072;-49
2021/05/09 04:43:21;;;;;;;7.90;7.05;;;19.90;99.90;;;;;;5075693;28;20110;-52
2021/05/09 04:45:52;;;;;;;8.48;7.70;;;19.80;99.90;;;;;;5075705;28;20024;-49
2021/05/09 04:48:21;;;;;;;9.20;8.40;;;20.00;99.90;;;;;;5075818;28;20012;-50
2021/05/09 04:50:49;;;;;;;8.82;8.18;;;20.00;99.90;;;;;;5075699;28;20042;-47
2021/05/09 04:53:30;;;;;;;8.30;7.60;;;20.00;99.90;;;;;;5075564;28;20492;-48
2021/05/09 04:55:59;;;;;;;8.90;8.30;;;19.80;99.90;;;;;;5075397;28;20029;-48
2021/05/09 04:58:28;;;;;;;9.07;8.30;;;20.00;99.90;;;;;;5075100;28;20511;-51
2021/05/09 05:01:01;;;;;;;8.27;7.57;;;20.00;99.90;;;;;;5075505;28;20029;-52
2021/05/09 05:03:29;;;;;;;9.65;8.75;;;20.00;99.90;;;;;;5075115;28;20032;-50
2021/05/09 05:05:57;;;;;;;9.02;8.32;;;20.10;99.90;;;;;;5075447;28;20024;-54
2021/05/09 05:08:24;;;;;;;8.60;8.00;;;20.10;99.90;;;;;;5075257;28;20020;-54
2021/05/09 05:10:52;;;;;;;8.85;7.97;;;20.10;99.90;;;;;;5075209;28;20227;-52
2021/05/09 05:13:31;;;;;;;9.20;8.40;;;19.90;99.90;;;;;;5075230;28;20491;-49
2021/05/09 05:16:04;;;;;;;8.80;7.97;;;19.90;99.90;;;;;;5073982;28;20037;-51
2021/05/09 05:18:32;;;;;;;9.60;8.93;;;19.80;99.90;;;;;;5074805;28;20397;-52
2021/05/09 05:21:05;;;;;;;9.48;8.70;;;19.80;99.90;;;;;;5074898;28;20386;-55
2021/05/09 05:23:34;;;;;;;9.05;8.30;;;19.90;99.90;;;;;;5074761;28;20036;-50
2021/05/09 05:26:01;;;;;;;9.63;8.85;;;20.00;99.90;;;;;;5075010;28;20017;-48
2021/05/09 05:28:29;;;;;;;9.07;8.23;;;20.10;99.90;;;;;;5074895;28;20431;-49
2021/05/09 05:30:56;;;;;;;9.35;8.70;;;20.00;99.90;;;;;;5074937;28;20477;-48
2021/05/09 05:33:33;;;;;;;8.52;7.93;;;20.00;99.90;;;;;;5074664;28;20107;-52
2021/05/09 05:36:03;;;;;;;9.38;8.55;;;19.90;99.90;;;;;;5074819;28;20028;-49
2021/05/09 05:38:30;;;;;;;9.05;8.50;;;19.80;99.90;;;;;;5073392;28;20079;-52
2021/05/09 05:40:58;;;;;;;9.32;8.63;;;19.70;99.90;;;;;;5074500;28;20067;-50
2021/05/09 05:43:28;;;;;;;9.80;8.90;;;19.70;99.90;;;;;;5074524;28;20039;-52
2021/05/09 05:45:57;;;;;;;9.93;9.20;;;19.60;99.90;;;;;;5074568;28;20451;-48
2021/05/09 05:48:25;;;;;;;9.43;8.70;;;19.70;99.90;;;;;;5073813;28;20072;-51
2021/05/09 05:50:53;;;;;;;9.48;8.70;;;19.60;99.90;;;;;;5073175;28;20441;-52
2021/05/09 05:53:25;;;;;;;9.43;8.82;;;19.50;99.90;;;;;;5074603;28;20393;-48
2021/05/09 05:55:54;;;;;;;9.35;8.65;;;19.50;99.90;;;;;;5074339;28;20025;-48
2021/05/09 05:58:22;;;;;;;9.55;8.75;;;19.40;99.90;;;;;;5072943;28;20124;-48
2021/05/09 06:00:50;;;;;;;9.70;9.10;;;19.40;99.90;;;;;;5074283;28;20481;-49
2021/05/09 06:03:18;;;;;;;10.27;9.35;;;19.40;99.90;;;;;;5073870;28;20020;-52
2021/05/09 06:05:46;;;;;;;10.07;9.13;;;19.30;99.90;;;;;;5074115;28;20028;-51
2021/05/09 06:08:16;;;;;;;9.90;9.10;;;19.30;99.90;;;;;;5072874;28;20024;-49
2021/05/09 06:10:46;;;;;;;10.77;9.93;;;19.20;99.90;;;;;;5074013;28;20024;-50
2021/05/09 06:13:13;;;;;;;;;;;19.10;99.90;;;;;;5074262;28;20261;-51
2021/05/09 06:15:41;;;;;;;11.68;10.85;;;19.10;99.90;;;;;;5073980;28;19905;-49
2021/05/09 06:18:08;;;;;;;12.02;11.13;;;19.00;99.90;;;;;;5073899;28;20081;-48
2021/05/09 06:20:35;;;;;;;12.13;11.32;;;19.00;99.90;;;;;;5073715;28;20083;-48
2021/05/09 06:23:03;;;;;;;12.15;11.20;;;18.90;99.90;;;;;;5073704;28;20032;-48
2021/05/09 06:25:32;;;;;;;10.40;9.80;;;18.90;99.90;;;;;;5073735;28;20028;-47
2021/05/09 06:27:59;;;;;;;12.80;11.73;;;18.80;99.90;;;;;;5073524;28;20032;-50
2021/05/09 06:30:26;;;;;;;11.23;10.43;;;18.80;99.90;;;;;;5073546;28;20028;-48
2021/05/09 06:32:54;;;;;;;12.15;11.45;;;18.70;99.90;;;;;;5073627;28;20020;-48
2021/05/09 06:35:22;;;;;;;13.20;12.35;;;18.70;99.90;;;;;;5073523;28;20169;-50
2021/05/09 06:37:52;;;;;;;13.60;12.65;;;18.60;99.90;;;;;;5073509;28;20106;-49
2021/05/09 06:40:20;;;;;;;14.23;13.52;;;18.60;99.90;;;;;;5073484;28;20048;-50
2021/05/09 06:42:56;;;;;;;16.67;15.48;;;18.60;99.90;;;;;;5073262;28;20111;-50
2021/05/09 06:45:26;;;;;;;16.38;15.45;;;18.50;99.90;;;;;;5073353;28;20028;-53
2021/05/09 06:47:53;;;;;;;;;;;18.50;99.90;;;;;;5073711;28;20070;-46
2021/05/09 06:50:21;;;;;;;16.38;15.27;;;18.50;99.90;;;;;;5073176;28;20368;-46
2021/05/09 06:52:48;;;;;;;17.67;16.50;;;18.30;99.90;;;;;;5073309;28;20020;-51
2021/05/09 06:55:16;;;;;;;18.45;17.35;;;18.40;99.90;;;;;;5073180;28;20089;-50
2021/05/09 06:57:46;;;;;;;20.67;19.38;;;18.30;99.90;;;;;;5072904;28;20059;-49
2021/05/09 07:00:14;;;;;;;20.05;18.95;;;18.30;99.90;;;;;;5072319;28;20048;-53
2021/05/09 07:02:42;;;;;;;20.98;19.75;;;18.30;99.90;;;;;;5072723;28;20504;-51
2021/05/09 07:05:10;;;;;;;20.60;19.40;;;18.20;99.90;;;;;;5073044;28;20078;-48
2021/05/09 07:07:58;;;;;;;22.25;20.65;;;18.10;99.90;;;;;;5072919;28;20027;-51
2021/05/09 07:10:26;;;;;;;21.63;20.15;;;18.10;99.90;;;;;;5072774;28;20503;-51
2021/05/09 07:12:55;;;;;;;21.35;20.20;;;18.10;99.90;;;;;;5072660;28;20029;-50
2021/05/09 07:15:28;;;;;;;22.90;21.60;;;18.10;99.90;;;;;;5071237;28;20036;-52
2021/05/09 07:18:08;;;;;;;23.20;21.83;;;18.10;99.90;;;;;;5072824;28;20032;-50
2021/05/09 07:20:39;;;;;;;23.48;22.05;;;18.00;99.90;;;;;;5072614;28;20032;-52
2021/05/09 07:23:07;;;;;;;23.58;22.27;;;18.00;99.90;;;;;;5072449;28;20028;-51
2021/05/09 07:25:35;;;;;;;25.38;23.88;;;18.00;99.90;;;;;;5071218;28;20480;-50
2021/05/09 07:28:10;;;;;;;26.23;24.63;;;17.90;99.90;;;;;;5072836;28;20506;-47
2021/05/09 07:30:39;;;;;;;26.92;25.45;;;17.90;99.90;;;;;;5072739;28;20017;-48
2021/05/09 07:33:12;;;;;;;28.33;26.63;;;18.00;99.90;;;;;;5072576;28;20029;-48
2021/05/09 07:35:40;;;;;;;28.33;26.73;;;18.00;99.90;;;;;;5071142;28;20025;-48
2021/05/09 07:38:09;;;;;;;29.50;27.52;;;18.00;99.90;;;;;;5070903;28;20028;-47
2021/05/09 07:40:37;;;;;;;29.33;27.58;;;18.00;99.90;;;;;;5072357;28;20053;-50
2021/05/09 07:43:06;;;;;;;30.35;28.55;;;18.00;99.90;;;;;;5072211;28;20028;-52
2021/05/09 07:45:34;;;;;;;31.52;29.83;;;17.90;99.90;;;;;;5072121;28;20099;-51
2021/05/09 07:48:02;;;;;;;32.13;29.88;;;17.80;99.90;;;;;;5072162;28;20027;-51
2021/05/09 07:50:29;;;;;;;31.83;30.02;;;17.80;99.90;;;;;;5072292;28;20021;-49
2021/05/09 07:52:59;;;;;;;30.95;29.35;;;17.80;99.90;;;;;;5072314;28;20024;-52
2021/05/09 07:55:27;;;;;;;31.40;29.60;;;17.70;99.90;;;;;;5072172;28;20020;-47
2021/05/09 07:57:55;;;;;;;30.25;28.65;;;17.70;99.90;;;;;;5072281;28;20028;-46
2021/05/09 08:00:24;;;;;;;29.70;28.05;;;17.60;99.90;;;;;;5072275;28;20035;-48
2021/05/09 08:02:52;;;;;;;29.60;28.10;;;17.60;99.90;;;;;;5072151;28;20031;-49
2021/05/09 08:05:22;;;;;;;30.38;28.67;;;17.60;99.90;;;;;;5072175;28;20016;-49
2021/05/09 08:07:54;;;;;;;33.78;31.75;;;17.60;99.90;;;;;;5072217;28;20032;-47
2021/05/09 08:10:23;;;;;;;32.13;30.40;;;17.50;99.90;;;;;;5073676;28;20020;-52
2021/05/09 08:12:54;;;;;;;30.55;28.80;;;17.50;99.90;;;;;;5076545;28;20032;-55
2021/05/09 08:15:22;;;;;;;30.75;29.08;;;17.50;99.90;;;;;;5076320;28;20028;-53
2021/05/09 08:17:53;;;;;;;31.05;29.38;;;17.40;99.90;;;;;;5076366;28;20453;-54
2021/05/09 08:20:20;;;;;;;32.38;30.58;;;17.40;99.90;;;;;;5076310;28;20047;-54
2021/05/09 08:22:48;;;;;;;32.72;30.85;;;17.40;99.90;;;;;;5076104;28;20591;-54
2021/05/09 08:25:16;;;;;;;32.70;30.75;;;17.40;99.90;;;;;;5076139;28;20107;-52
2021/05/09 08:27:45;;;;;;;32.03;30.23;;;17.50;99.90;;;;;;5076171;28;20098;-51
2021/05/09 08:30:17;;;;;;;32.80;30.80;;;17.40;99.90;;;;;;5076269;28;20056;-54
2021/05/09 08:32:45;;;;;;;33.65;31.77;;;17.40;99.90;;;;;;5076317;28;20032;-54
2021/05/09 08:35:13;;;;;;;32.17;30.38;;;17.40;99.90;;;;;;5076405;28;20020;-50
2021/05/09 08:37:42;;;;;;;34.72;32.92;;;17.40;99.90;;;;;;5076273;28;20029;-52
2021/05/09 08:40:15;;;;;;;32.05;30.20;;;17.40;99.90;;;;;;5075965;28;20067;-54
2021/05/09 08:42:44;;;;;;;32.17;30.38;;;17.40;99.90;;;;;;5076101;28;20025;-54
2021/05/09 08:45:12;;;;;;;32.10;30.20;;;17.40;99.90;;;;;;5076118;28;20017;-54
2021/05/09 08:47:41;;;;;;;32.80;30.80;;;17.30;99.90;;;;;;5076039;28;20021;-55
2021/05/09 08:50:14;;;;;;;31.17;29.45;;;17.40;99.90;;;;;;5076012;28;20496;-55
2021/05/09 08:52:44;;;;;;;30.38;28.65;;;17.30;99.90;;;;;;5075922;28;20393;-54
2021/05/09 08:55:15;;;;;;;31.42;29.48;;;17.30;99.90;;;;;;5075967;28;20020;-50
2021/05/09 08:57:43;;;;;;;31.15;29.10;;;17.30;99.90;;;;;;5075950;28;20100;-50
2021/05/09 09:00:17;;;;;;;32.53;30.33;;;17.30;99.90;;;;;;5076121;28;20372;-52
2021/05/09 09:02:44;;;;;;;30.90;29.00;;;17.30;99.90;;;;;;5074382;28;20027;-54
2021/05/09 09:05:14;;;;;;;32.10;30.10;;;17.30;99.90;;;;;;5075668;28;20503;-52
2021/05/09 09:07:52;;;;;;;31.92;30.33;;;17.30;99.90;;;;;;5075574;28;20381;-55
2021/05/09 09:10:32;;;;;;;31.40;29.58;;;17.30;99.90;;;;;;5075547;28;20031;-50
2021/05/09 09:13:01;;;;;;;32.25;30.45;;;17.30;99.90;;;;;;5074183;28;20028;-52
2021/05/09 09:15:50;;;;;;;32.00;30.20;;;17.20;99.90;;;;;;5075370;28;20040;-53
2021/05/09 09:18:34;;;;;;;31.10;29.10;;;17.30;99.90;;;;;;5075371;28;20025;-51
2021/05/09 09:21:21;;;;;;;30.63;28.75;;;17.20;99.90;;;;;;5074974;28;20149;-50
2021/05/09 09:23:50;;;;;;;30.17;28.25;;;17.20;99.90;;;;;;5075120;28;20047;-49
2021/05/09 09:26:37;;;;;;;30.30;28.60;;;17.20;99.90;;;;;;5075235;28;20071;-48
2021/05/09 09:29:33;;;;;;;31.13;29.10;;;17.20;99.90;;;;;;5075198;28;20046;-53
2021/05/09 09:32:03;;;;;;;32.08;30.27;;;17.20;99.90;;;;;;5075170;28;20039;-54
2021/05/09 09:34:50;;;;;;;31.92;30.02;;;17.10;99.90;;;;;;5075155;28;20036;-53
2021/05/09 09:37:18;;;;;;;31.90;30.10;;;17.10;99.90;;;;;;5075016;28;20025;-55
2021/05/09 09:40:02;;;;;;;31.90;30.10;;;17.10;99.90;;;;;;5074811;28;20039;-51
2021/05/09 09:42:45;;;;;;;31.92;30.10;;;17.10;99.90;;;;;;5074784;28;20040;-50
2021/05/09 09:45:28;;;;;;;32.83;30.92;;;17.10;99.90;;;;;;5073632;28;20028;-51
2021/05/09 09:48:01;;;;;;;33.35;31.42;;;17.10;99.90;;;;;;5074604;28;20054;-54
2021/05/09 09:50:41;;;;;;;32.83;30.80;;;17.10;99.90;;;;;;5074554;28;20074;-52
2021/05/09 09:53:31;;;;;;;31.40;29.60;;;17.10;99.90;;;;;;5074744;28;20606;-52
2021/05/09 09:56:02;;;;;;;31.58;29.88;;;17.10;99.90;;;;;;5074599;28;20028;-56
2021/05/09 09:58:53;;;;;;;30.45;28.75;;;17.10;99.90;;;;;;5074448;28;20453;-53
2021/05/09 10:01:28;;;;;;;29.05;27.55;;;17.20;99.90;;;;;;5074610;28;20046;-49
2021/05/09 10:03:58;;;;;;;29.88;28.25;;;17.10;99.90;;;;;;5074357;28;20503;-54
2021/05/09 10:06:26;;;;;;;30.03;28.30;;;17.10;99.90;;;;;;5074439;28;20039;-52
2021/05/09 10:08:54;;;;;;;30.88;28.98;;;17.10;99.90;;;;;;5074316;28;20500;-51
2021/05/09 10:11:22;;;;;;;31.20;29.33;;;17.10;99.90;;;;;;5074276;28;20407;-54
2021/05/09 10:13:52;;;;;;;30.42;28.63;;;17.10;99.90;;;;;;5074258;28;20028;-52
2021/05/09 10:16:30;;;;;;;29.10;27.50;;;17.00;99.90;;;;;;5074074;28;20074;-51
2021/05/09 10:19:03;;;;;;;29.75;28.10;;;17.10;99.90;;;;;;5074044;28;20043;-50
2021/05/09 10:21:37;;;;;;;30.15;28.55;;;17.10;99.90;;;;;;5074020;28;20056;-54
2021/05/09 10:24:18;;;;;;;29.38;27.88;;;17.00;99.90;;;;;;5073993;28;20047;-53
2021/05/09 10:26:59;;;;;;;30.70;29.00;;;17.00;99.90;;;;;;5073962;28;20044;-50
2021/05/09 10:29:36;;;;;;;31.17;29.50;;;17.00;99.90;;;;;;5073899;28;20476;-55
2021/05/09 10:32:22;;;;;;;29.20;27.50;;;17.00;99.90;;;;;;5073799;28;20104;-56
2021/05/09 10:34:56;;;;;;;28.92;27.42;;;16.90;99.90;;;;;;5073590;28;20507;-52
2021/05/09 10:37:52;;;;;;;28.45;26.92;;;16.90;99.90;;;;;;5073780;28;20044;-55
2021/05/09 10:40:35;;;;;;;28.08;26.60;;;16.90;99.90;;;;;;5060539;28;20044;-49
2021/05/09 10:43:07;;;;;;;28.08;26.67;;;16.90;99.90;;;;;;5073448;28;20033;-51
2021/05/09 10:45:35;;;;;;;28.67;27.17;;;16.90;99.90;;;;;;5073909;28;20601;-53
2021/05/09 10:48:33;;;;;;;27.58;26.13;;;16.90;99.90;;;;;;5073416;28;20016;-50
2021/05/09 10:51:04;;;;;;;27.00;25.60;;;16.90;99.90;;;;;;5073528;28;20040;-52
2021/05/09 10:53:34;;;;;;;25.95;24.20;;;16.90;99.90;;;;;;5073416;28;20523;-55
2021/05/09 10:56:04;;;;;;;25.52;24.15;;;17.00;99.90;;;;;;5073271;28;20496;-54
2021/05/09 10:58:51;;;;;;;26.73;25.10;;;17.00;99.90;;;;;;5073348;28;20362;-52
2021/05/09 11:01:37;;;;;;;25.73;24.35;;;17.00;99.90;;;;;;5073237;28;20055;-55
2021/05/09 11:04:09;;;;;;;24.00;22.80;;;16.90;99.90;;;;;;5073184;28;20078;-55
2021/05/09 11:06:40;;;;;;;25.73;24.42;;;16.90;99.90;;;;;;5073051;28;20055;-55
2021/05/09 11:09:13;;;;;;;24.38;23.17;;;16.90;99.90;;;;;;5073081;28;20074;-54
2021/05/09 11:11:40;;;;;;;24.15;22.75;;;17.00;99.90;;;;;;5073015;28;20074;-54
2021/05/09 11:14:11;;;;;;;24.73;23.42;;;17.00;99.90;;;;;;5073066;28;20092;-52
2021/05/09 11:16:44;;;;;;;24.05;22.65;;;16.90;99.90;;;;;;5073043;28;20376;-49
2021/05/09 11:19:21;;;;;;;24.60;23.17;;;16.90;99.90;;;;;;5374230;22;20501;-56
2021/05/09 11:28:27;;;;;;;24.20;22.90;;;16.90;99.90;;;;;;4973263;28;20030;-50
2021/05/09 11:30:55;;;;;;;23.00;21.83;;;16.90;99.90;;;;;;5013535;28;20033;-53
2021/05/09 11:33:51;;;;;;;22.90;21.60;;;16.90;99.90;;;;;;5014035;28;20032;-52
2021/05/09 11:36:29;;;;;;;23.08;21.55;;;16.80;99.90;;;;;;5013131;28;20030;-54
2021/05/09 11:39:20;;;;;;;24.58;23.23;;;16.80;99.90;;;;;;5013979;28;20030;-50
2021/05/09 11:41:50;;;;;;;;;;;16.80;99.90;;;;;;5014083;28;20022;-55
2021/05/09 11:44:17;;;;;;;23.73;22.52;;;16.70;99.90;;;;;;5013294;28;19959;-58
2021/05/09 11:46:45;;;;;;;25.10;23.73;;;16.60;99.90;;;;;;5013815;28;20109;-57
2021/05/09 11:49:21;;;;;;;25.20;23.80;;;16.60;99.90;;;;;;5013713;28;20029;-55
2021/05/09 11:51:53;;;;;;;25.08;23.77;;;16.60;99.90;;;;;;5012238;28;20056;-55
2021/05/09 11:54:22;;;;;;;24.60;23.30;;;16.60;99.90;;;;;;5013600;28;20121;-52
2021/05/09 11:56:50;;;;;;;24.23;23.02;;;16.50;99.90;;;;;;5013880;28;20030;-53
2021/05/09 11:59:38;;;;;;;26.75;25.38;;;16.50;99.90;;;;;;5013462;28;20104;-54
2021/05/09 12:02:20;;;;;;;27.10;25.65;;;16.40;99.90;;;;;;5013400;28;20450;-53
2021/05/09 12:04:59;;;;;;;27.77;26.27;;;16.40;99.90;;;;;;5013745;28;20018;-52
2021/05/09 12:07:46;;;;;;;27.35;25.75;;;16.30;99.90;;;;;;5013739;28;20072;-55
2021/05/09 12:10:27;;;;;;;26.58;25.20;;;16.20;99.90;;;;;;5013546;28;20050;-54
2021/05/09 12:13:09;;;;;;;26.80;25.30;;;16.20;99.90;;;;;;5013705;28;20034;-55
2021/05/09 12:15:43;;;;;;;26.17;24.83;;;16.20;99.90;;;;;;5013581;28;20486;-55
2021/05/09 12:18:12;;;;;;;27.45;26.05;;;16.20;99.90;;;;;;5013226;28;20085;-52
2021/05/09 12:20:47;;;;;;;26.95;25.55;;;16.20;99.90;;;;;;5013358;28;20038;-51
2021/05/09 12:23:17;;;;;;;25.75;24.35;;;16.10;99.90;;;;;;5013490;28;20036;-57
2021/05/09 12:25:48;;;;;;;26.42;25.00;;;16.10;99.90;;;;;;5013862;28;20156;-55
2021/05/09 12:28:28;;;;;;;25.92;24.52;;;16.10;99.90;;;;;;5013585;28;20105;-55
2021/05/09 12:30:56;;;;;;;24.83;23.52;;;16.00;99.90;;;;;;5013846;28;20050;-52
2021/05/09 12:33:28;;;;;;;25.40;24.00;;;16.00;99.90;;;;;;5013557;28;20042;-51
2021/05/09 12:35:57;;;;;;;24.88;23.67;;;15.90;99.90;;;;;;5013364;28;20389;-52
2021/05/09 12:38:26;;;;;;;26.90;25.40;;;15.80;99.90;;;;;;5013089;28;20084;-54
2021/05/09 12:41:08;;;;;;;26.90;25.55;;;15.70;99.90;;;;;;5013505;28;20430;-53
2021/05/09 12:43:47;;;;;;;26.60;25.30;;;15.60;99.90;;;;;;5013518;28;20068;-53
2021/05/09 12:46:38;;;;;;;29.05;27.65;;;15.60;99.90;;;;;;5013272;28;20108;-52
2021/05/09 12:49:12;;;;;;;30.67;29.00;;;15.40;99.90;;;;;;5013527;28;20045;-52
2021/05/09 12:52:12;;;;;;;30.77;29.08;;;15.40;99.90;;;;;;5013127;28;20026;-55
2021/05/09 12:54:48;;;;;;;31.60;29.50;;;15.30;99.90;;;;;;5001313;28;20034;-54
2021/05/09 12:57:21;;;;;;;32.50;30.70;;;15.20;99.90;;;;;;5015766;28;20030;-52
2021/05/09 12:59:48;;;;;;;32.22;30.30;;;15.20;99.90;;;;;;5016775;28;20080;-55
2021/05/09 13:02:18;;;;;;;31.65;29.95;;;15.10;99.90;;;;;;5017017;28;20053;-54
2021/05/09 13:04:51;;;;;;;32.03;29.95;;;15.10;99.90;;;;;;5016953;28;20063;-52